MSC Vanessa — HOWD — position and weather

sailwx.info

Track history (hours):
 
Tides and Currents Weather Stations Pressure Air Temp Water Temp Dewpoint Dewpoint Depression Visibility Wind Speed Wind Dir Waves Ship Positions

MSC Vanessa

Last reported at 2014-Oct-12 02:33 UTC. Time now 2014-Oct-20 09:44 UTC.
Position S 12°57' W 038°06'.
Warning: this ship's position is 8 days out of date.

Length 300 m; draft 10.3 m.

Type: Ship (hazmat cat A). MMSI: 356946000.

Date/timePositionNaut miles runAvg speedWind from/ knotsBaromVisibWave heightAir tempDewpointWater temp
2014-Oct-12 02:33S 12°57' W 038°06'1615.9
2014-Oct-12 01:33S 13°06' W 038°20'1413.9
2014-Oct-12 00:33S 13°05' W 038°34'8 8.2
2014-Oct-11 23:34S 12°57' W 038°31'0 0.3
2014-Oct-11 22:32S 12°57' W 038°30'0 0.0
2014-Oct-11 21:32S 12°57' W 038°30'0 0.0
2014-Oct-11 20:32S 12°57' W 038°30'0 0.0
2014-Oct-11 19:32S 12°57' W 038°30'0 0.0
2014-Oct-11 18:32S 12°57' W 038°30'0 0.0
2014-Oct-11 17:32S 12°57' W 038°30'0 0.0
2014-Oct-11 16:32S 12°57' W 038°30'0 0.0
2014-Oct-11 15:32S 12°57' W 038°30'3 2.6
2014-Oct-11 14:33S 12°57' W 038°33'1 1.3
2014-Oct-11 13:31S 12°58' W 038°33'0 0.0
2014-Oct-11 12:31S 12°58' W 038°33'0 0.0
2014-Oct-11 11:31S 12°58' W 038°33'0 0.1
2014-Oct-11 10:31S 12°58' W 038°33'0 0.1
2014-Oct-11 09:31S 12°58' W 038°33'0 0.0
2014-Oct-11 08:31S 12°58' W 038°33'0 0.0
2014-Oct-11 07:31S 12°58' W 038°33'0 0.0
2014-Oct-11 06:31S 12°58' W 038°33'0 0.0
2014-Oct-11 05:31S 12°58' W 038°33'0 0.0
2014-Oct-11 04:31S 12°58' W 038°33'0 0.0
2014-Oct-11 03:31S 12°58' W 038°33'0 0.0
2014-Oct-11 02:31S 12°58' W 038°33'0 0.1
2014-Oct-11 01:31S 12°58' W 038°33'0 0.0
2014-Oct-11 00:31S 12°58' W 038°33'0 0.0
2014-Oct-10 23:31S 12°58' W 038°33'0 0.0
2014-Oct-10 22:31S 12°58' W 038°33'0 0.1
2014-Oct-10 21:31S 12°58' W 038°33'0 0.0
2014-Oct-10 20:31S 12°58' W 038°33'0 0.0
2014-Oct-10 19:31S 12°58' W 038°33'0 0.0
2014-Oct-10 18:31S 12°58' W 038°33'0 0.0
2014-Oct-10 17:31S 12°58' W 038°33'0 0.0
2014-Oct-10 16:31S 12°58' W 038°33'0 0.0
2014-Oct-10 15:31S 12°58' W 038°33'0 0.0
2014-Oct-10 14:31S 12°58' W 038°33'0 0.1
2014-Oct-10 13:34S 12°58' W 038°33'5 5.4
2014-Oct-10 12:33S 13°04' W 038°34'1010.1
2014-Oct-10 11:33S 13°14' W 038°34'8213.5
2014-Oct-10 05:28S 14°36' W 038°27'1413.5
2014-Oct-10 04:26S 14°50' W 038°26'72214.7
2014-Oct-08 03:11S 24°22' W 046°15'1219.2
2014-Oct-08 02:33S 24°12' W 046°22'1211.9
2014-Oct-08 01:33S 24°00' W 046°20'5 4.9
2014-Oct-08 00:33S 23°55' W 046°21'0 0.2
2014-Oct-07 23:33S 23°55' W 046°21'0 0.0
2014-Oct-07 22:31S 23°55' W 046°21'0 0.0
2014-Oct-07 21:31S 23°55' W 046°21'0 0.0
2014-Oct-07 20:31S 23°55' W 046°21'0 0.0
2014-Oct-07 19:31S 23°55' W 046°21'0 0.0
2014-Oct-07 18:31S 23°55' W 046°21'0 0.0
2014-Oct-07 17:25S 23°55' W 046°21'0 0.0
2014-Oct-07 16:31S 23°55' W 046°21'0 0.0
2014-Oct-07 15:31S 23°55' W 046°21'0 0.0
2014-Oct-07 14:31S 23°55' W 046°21'0 0.0
2014-Oct-07 13:31S 23°55' W 046°21'0 0.0
2014-Oct-07 12:31S 23°55' W 046°21'0 0.0
2014-Oct-07 11:31S 23°55' W 046°21'0 0.0
2014-Oct-07 09:25S 23°55' W 046°21'0 0.0
2014-Oct-07 08:31S 23°55' W 046°21'0 0.0
2014-Oct-07 07:31S 23°55' W 046°21'0 0.0
2014-Oct-07 06:31S 23°55' W 046°21'0 0.0
2014-Oct-07 05:31S 23°55' W 046°21'0 0.0
2014-Oct-07 04:31S 23°55' W 046°21'0 0.0
2014-Oct-07 03:31S 23°55' W 046°21'0 0.0
2014-Oct-07 02:31S 23°55' W 046°21'0 0.0
2014-Oct-07 01:31S 23°55' W 046°21'0 0.5
2014-Oct-07 00:33S 23°55' W 046°20'6 5.8
2014-Oct-06 23:33S 24°01' W 046°21'13 0.7
2014-Oct-06 06:08S 24°14' W 046°19'1 0.1
2014-Oct-05 05:32S 24°15' W 046°20'209 4.5
2014-Oct-03 07:09S 27°19' W 048°10'1016.2
2014-Oct-03 06:33S 27°28' W 048°12'1615.6
2014-Oct-03 05:33S 27°43' W 048°15'  
Track history (hours):
 
Tides and Currents Weather Stations Pressure Air Temp Water Temp Dewpoint Dewpoint Depression Visibility Wind Speed Wind Dir Waves Ship Positions

MSC Vanessa

Last reported at 2014-Oct-12 02:33 UTC. Time now 2014-Oct-20 09:44 UTC.
Position S 12°57' W 038°06'.
Warning: this ship's position is 8 days out of date.

Length 300 m; draft 10.3 m.

Type: Ship (hazmat cat A). MMSI: 356946000.

Date/timePositionNaut miles runAvg speedWind from/ knotsBaromVisibWave heightAir tempDewpointWater temp
2014-Oct-12 02:33S 12°57' W 038°06'1615.9
2014-Oct-12 01:33S 13°06' W 038°20'1413.9
2014-Oct-12 00:33S 13°05' W 038°34'8 8.2
2014-Oct-11 23:34S 12°57' W 038°31'0 0.3
2014-Oct-11 22:32S 12°57' W 038°30'0 0.0
2014-Oct-11 21:32S 12°57' W 038°30'0 0.0
2014-Oct-11 20:32S 12°57' W 038°30'0 0.0
2014-Oct-11 19:32S 12°57' W 038°30'0 0.0
2014-Oct-11 18:32S 12°57' W 038°30'0 0.0
2014-Oct-11 17:32S 12°57' W 038°30'0 0.0
2014-Oct-11 16:32S 12°57' W 038°30'0 0.0
2014-Oct-11 15:32S 12°57' W 038°30'3 2.6
2014-Oct-11 14:33S 12°57' W 038°33'1 1.3
2014-Oct-11 13:31S 12°58' W 038°33'0 0.0
2014-Oct-11 12:31S 12°58' W 038°33'0 0.0
2014-Oct-11 11:31S 12°58' W 038°33'0 0.1
2014-Oct-11 10:31S 12°58' W 038°33'0 0.1
2014-Oct-11 09:31S 12°58' W 038°33'0 0.0
2014-Oct-11 08:31S 12°58' W 038°33'0 0.0
2014-Oct-11 07:31S 12°58' W 038°33'0 0.0
2014-Oct-11 06:31S 12°58' W 038°33'0 0.0
2014-Oct-11 05:31S 12°58' W 038°33'0 0.0
2014-Oct-11 04:31S 12°58' W 038°33'0 0.0
2014-Oct-11 03:31S 12°58' W 038°33'0 0.0
2014-Oct-11 02:31S 12°58' W 038°33'0 0.1
2014-Oct-11 01:31S 12°58' W 038°33'0 0.0
2014-Oct-11 00:31S 12°58' W 038°33'0 0.0
2014-Oct-10 23:31S 12°58' W 038°33'0 0.0
2014-Oct-10 22:31S 12°58' W 038°33'0 0.1
2014-Oct-10 21:31S 12°58' W 038°33'0 0.0
2014-Oct-10 20:31S 12°58' W 038°33'0 0.0
2014-Oct-10 19:31S 12°58' W 038°33'0 0.0
2014-Oct-10 18:31S 12°58' W 038°33'0 0.0
2014-Oct-10 17:31S 12°58' W 038°33'0 0.0
2014-Oct-10 16:31S 12°58' W 038°33'0 0.0
2014-Oct-10 15:31S 12°58' W 038°33'0 0.0
2014-Oct-10 14:31S 12°58' W 038°33'0 0.1
2014-Oct-10 13:34S 12°58' W 038°33'5 5.4
2014-Oct-10 12:33S 13°04' W 038°34'1010.1
2014-Oct-10 11:33S 13°14' W 038°34'8213.5
2014-Oct-10 05:28S 14°36' W 038°27'1413.5
2014-Oct-10 04:26S 14°50' W 038°26'72214.7
2014-Oct-08 03:11S 24°22' W 046°15'1219.2
2014-Oct-08 02:33S 24°12' W 046°22'1211.9
2014-Oct-08 01:33S 24°00' W 046°20'5 4.9
2014-Oct-08 00:33S 23°55' W 046°21'0 0.2
2014-Oct-07 23:33S 23°55' W 046°21'0 0.0
2014-Oct-07 22:31S 23°55' W 046°21'0 0.0
2014-Oct-07 21:31S 23°55' W 046°21'0 0.0
2014-Oct-07 20:31S 23°55' W 046°21'0 0.0
2014-Oct-07 19:31S 23°55' W 046°21'0 0.0
2014-Oct-07 18:31S 23°55' W 046°21'0 0.0
2014-Oct-07 17:25S 23°55' W 046°21'0 0.0
2014-Oct-07 16:31S 23°55' W 046°21'0 0.0
2014-Oct-07 15:31S 23°55' W 046°21'0 0.0
2014-Oct-07 14:31S 23°55' W 046°21'0 0.0
2014-Oct-07 13:31S 23°55' W 046°21'0 0.0
2014-Oct-07 12:31S 23°55' W 046°21'0 0.0
2014-Oct-07 11:31S 23°55' W 046°21'0 0.0
2014-Oct-07 09:25S 23°55' W 046°21'0 0.0
2014-Oct-07 08:31S 23°55' W 046°21'0 0.0
2014-Oct-07 07:31S 23°55' W 046°21'0 0.0
2014-Oct-07 06:31S 23°55' W 046°21'0 0.0
2014-Oct-07 05:31S 23°55' W 046°21'0 0.0
2014-Oct-07 04:31S 23°55' W 046°21'0 0.0
2014-Oct-07 03:31S 23°55' W 046°21'0 0.0
2014-Oct-07 02:31S 23°55' W 046°21'0 0.0
2014-Oct-07 01:31S 23°55' W 046°21'0 0.5
2014-Oct-07 00:33S 23°55' W 046°20'6 5.8
2014-Oct-06 23:33S 24°01' W 046°21'13 0.7
2014-Oct-06 06:08S 24°14' W 046°19'1 0.1
2014-Oct-05 05:32S 24°15' W 046°20'209 4.5
2014-Oct-03 07:09S 27°19' W 048°10'1016.2
2014-Oct-03 06:33S 27°28' W 048°12'1615.6
2014-Oct-03 05:33S 27°43' W 048°15'  

Dump ship's entire track history